Mithapur Airport

IN-0106 · 古吉拉特邦, 印度

使用的METAR站距离机场105 km。
罗盘
风向 的 风向 170° Mithapur Airport 7/25
风: 11 kt, 4 beaufort

3 kt

11 kt
改变
0 ft 1.000 2.000 3.000 4.000 5.000
Cloud Cloud Cloud Cloud
SCT 1.800
Cloud Cloud Cloud Cloud
SCT 2.500
Cloud Cloud
FEW 2.500
METAR VAJM 171100Z 17011KT 6000 -RA SCT018 SCT025 FEW025TCU 33/29 Q0995 TEMPO 4000 BKN015

METAR Mithapur Airport - IN-0106

Mithapur Airport是,印度中的小机场。 该机场位于纬度22,41188和经度68,99318。 该机场有一条跑道: 7/25. 这个机场没有ICAO代码,我们使用IN-0106作为参考。 机场在Mumbai FIR中。

该航空气象观测是针对Jamnagar Airport在2024年7月17日 16:30, 当地时间进行的。

机场观察

风向为170°,速度为11 kt。

可见度为6 km。

有疏云,零星散落的云朵在1.800 ft的高度, 疏云,零星散落的云朵在2.500 ft的高度 和 几云 高耸的积云在2.500 ft的高度。 没有观察到天花板。

当前天气为光 雨。 温度和风寒是33 °C。 热指数为47。 露点为29 °C,相对湿度为80%。 海平面上的气压为995 hPa (QNH)。

发展趋势

  • 暂时的

    可变方向的风很小或没有。 可见性变为4 km。 碎云在1.500 ft的高度.

白天

今天,太阳从06:19升起,在19:40降落。 这适用于Mithapur Airport,世界夏令时可能有所不同。 当地时间与世界标准时间之间的时差为+5 小时 30 分钟。 夏令时目前正在进行中。

公司介绍

我们没有关于这个机场的公司信息。

体会

到Vliegles.nl去找飞行课程,跳伞和其他飞行体验。 浏览页面,了解Mithapur Airport附近所有可用的活动。 你也可以使用搜索功能来寻找你所在地附近的特定飞行课程、跳伞或其他飞行体验。

跑道

Id 标题 侧风 逆风 侧风 %
7/25 066°-246° 11 kt 3 kt 97 %

逆风成分最大的方向会被突出显示,并用于横风计算。 这并不一定意味着这个方向在使用。

乌云

1.800 ft SCT 疏云,零星散落的云朵
2.500 ft SCT 疏云,零星散落的云朵
2.500 ft FEW 几云 高耸的积云
1.500 ft BKN 暂时的 碎云

温度 & 天气

天气 光 雨
温度 33 °C
露点 29 °C
相对湿度 80%
热度指数 47 °C
Kp-index 2 (0-9)

白天

日出
06:15
中午
12:56
日落
19:36 (44m)

小工具

你想在你的网站上有一个关于Mithapur Airport的当前航空天气(METAR)的小部件吗?

显示HTML代码
报告变更